Time;durP1;ratioP1;P1;durP2;ratioP2;P2;SDS_P1;SDS_P2;PMS_P1;PMS_P2;Temp;Humidity;BMP_temperature;BMP_pressure;BME280_temperature;BME280_humidity;BME280_pressure;Samples;Min_cycle;Max_cycle;Signal;HPM_P1;HPM_P2
2021/09/10 00:00:28;;;;;;;21.58;14.50;;;20.40;99.90;;;;;;4985539;28;20036;-75
2021/09/10 00:03:17;;;;;;;21.10;16.70;;;20.30;99.90;;;;;;4996984;28;20180;-75
2021/09/10 00:06:02;;;;;;;20.75;15.35;;;20.30;99.90;;;;;;5018180;28;20338;-75
2021/09/10 00:09:00;;;;;;;20.20;13.98;;;20.30;99.90;;;;;;4993426;28;20095;-75
2021/09/10 00:11:48;;;;;;;20.17;13.23;;;20.30;99.90;;;;;;5004853;28;20056;-76
2021/09/10 00:14:33;;;;;;;15.15;12.73;;;20.30;99.90;;;;;;4985601;28;20052;-76
2021/09/10 00:17:22;;;;;;;22.42;14.32;;;20.30;99.90;;;;;;4990819;28;20052;-76
2021/09/10 00:20:11;;;;;;;19.70;12.82;;;20.30;99.90;;;;;;5000711;28;20052;-76
2021/09/10 00:22:56;;;;;;;18.58;14.70;;;20.30;99.90;;;;;;5002434;28;20056;-76
2021/09/10 00:25:44;;;;;;;19.70;14.25;;;20.20;99.90;;;;;;5005525;28;20833;-77
2021/09/10 00:28:29;;;;;;;16.55;12.95;;;20.20;99.90;;;;;;5001603;28;20092;-76
2021/09/10 00:31:15;;;;;;;19.90;12.02;;;20.20;99.90;;;;;;5010067;28;20048;-77
2021/09/10 00:34:07;;;;;;;18.80;14.10;;;20.30;99.90;;;;;;4995781;28;20122;-76
2021/09/10 00:36:58;;;;;;;16.77;12.93;;;20.20;99.90;;;;;;5008732;28;20063;-76
2021/09/10 00:39:55;;;;;;;19.98;13.43;;;20.20;99.90;;;;;;4996942;28;20068;-76
2021/09/10 00:42:53;;;;;;;19.02;13.43;;;20.20;99.90;;;;;;4999929;28;20063;-76
2021/09/10 00:45:47;;;;;;;21.17;14.10;;;20.20;99.90;;;;;;5011715;28;20044;-76
2021/09/10 00:48:35;;;;;;;21.15;15.05;;;20.20;99.90;;;;;;5000423;28;21388;-76
2021/09/10 00:51:21;;;;;;;15.90;12.48;;;20.20;99.90;;;;;;5019672;28;20056;-76
2021/09/10 00:54:09;;;;;;;22.67;14.25;;;20.20;99.90;;;;;;4999139;28;20056;-76
2021/09/10 00:57:02;;;;;;;21.15;13.90;;;20.20;99.90;;;;;;5008041;28;20052;-76
2021/09/10 00:59:56;;;;;;;19.92;14.82;;;20.20;99.90;;;;;;5007527;28;20044;-76
2021/09/10 01:02:41;;;;;;;;;;;20.20;99.90;;;;;;5005150;28;20048;-76
2021/09/10 01:05:31;;;;;;;18.75;13.38;;;20.10;99.90;;;;;;5010001;28;20460;-75
2021/09/10 01:08:32;;;;;;;18.88;13.18;;;20.20;99.90;;;;;;5008405;28;20599;-75
2021/09/10 01:11:22;;;;;;;16.40;11.20;;;20.20;99.90;;;;;;5018137;28;20052;-76
2021/09/10 01:14:07;;;;;;;20.58;12.73;;;20.20;99.90;;;;;;5000337;28;20048;-75
2021/09/10 01:16:52;;;;;;;17.02;14.43;;;20.20;99.90;;;;;;5009745;28;20055;-75
2021/09/10 01:19:38;;;;;;;20.20;13.60;;;20.20;99.90;;;;;;5000828;28;21325;-76
2021/09/10 01:22:25;;;;;;;17.73;12.95;;;20.10;99.90;;;;;;5014035;28;20037;-75
2021/09/10 01:25:19;;;;;;;17.83;12.98;;;20.00;99.90;;;;;;5001388;28;20808;-75
2021/09/10 01:28:11;;;;;;;17.15;11.77;;;20.10;99.90;;;;;;5009186;28;20052;-76
2021/09/10 01:31:04;;;;;;;19.15;13.10;;;20.10;99.90;;;;;;5006556;28;20051;-75
2021/09/10 01:33:49;;;;;;;20.60;13.02;;;20.10;99.90;;;;;;5001526;28;20052;-76
2021/09/10 01:36:34;;;;;;;15.88;11.57;;;20.10;99.90;;;;;;5011138;28;20052;-76
2021/09/10 01:39:25;;;;;;;14.55;10.85;;;20.10;99.90;;;;;;4997120;28;20036;-76
2021/09/10 01:42:13;;;;;;;15.40;10.00;;;20.10;99.90;;;;;;5018426;28;20338;-76
2021/09/10 01:45:24;;;;;;;22.30;12.18;;;20.10;99.90;;;;;;4996759;28;20901;-76
2021/09/10 01:48:22;;;;;;;17.13;11.80;;;20.10;99.90;;;;;;5001978;28;20071;-76
2021/09/10 01:51:07;;;;;;;21.92;11.80;;;20.10;99.90;;;;;;5007213;28;20048;-76
2021/09/10 01:53:52;;;;;;;14.10;10.25;;;20.10;99.90;;;;;;5011870;28;20100;-76
2021/09/10 01:56:38;;;;;;;14.20;9.70;;;20.10;99.90;;;;;;5004911;28;21224;-76
2021/09/10 01:59:33;;;;;;;14.00;9.68;;;20.10;99.90;;;;;;5004408;28;20044;-75
2021/09/10 02:02:30;;;;;;;10.82;8.10;;;20.00;99.90;;;;;;5015587;28;20048;-76
2021/09/10 02:05:24;;;;;;;13.07;7.93;;;20.10;99.90;;;;;;4995714;28;20056;-76
2021/09/10 02:08:09;;;;;;;10.65;6.78;;;20.00;99.90;;;;;;4991367;28;20072;-76
2021/09/10 02:11:07;;;;;;;14.48;7.82;;;20.00;99.90;;;;;;4999711;28;20083;-76
2021/09/10 02:13:53;;;;;;;11.38;6.57;;;20.00;99.90;;;;;;5001301;28;20056;-75
2021/09/10 02:16:41;;;;;;;12.40;8.25;;;20.00;99.90;;;;;;5001733;28;20048;-75
2021/09/10 02:19:26;;;;;;;15.32;8.75;;;20.00;99.90;;;;;;5005440;28;20048;-76
2021/09/10 02:22:11;;;;;;;11.93;8.68;;;19.90;99.90;;;;;;5007225;28;21314;-76
2021/09/10 02:24:59;;;;;;;11.95;8.27;;;19.90;99.90;;;;;;5006328;28;20056;-76
2021/09/10 02:27:51;;;;;;;12.75;8.48;;;19.90;99.90;;;;;;5002569;28;20071;-75
2021/09/10 02:30:36;;;;;;;13.45;10.18;;;19.90;99.90;;;;;;4999141;28;20048;-76
2021/09/10 02:33:23;;;;;;;19.77;13.43;;;19.90;99.90;;;;;;4990779;28;21447;-76
2021/09/10 02:36:18;;;;;;;19.38;16.95;;;19.90;99.90;;;;;;4995013;28;20044;-75
2021/09/10 02:39:06;;;;;;;20.00;15.88;;;20.00;99.90;;;;;;5000398;28;20052;-76
2021/09/10 02:41:51;;;;;;;25.30;19.05;;;19.90;99.90;;;;;;4990807;28;20048;-75
2021/09/10 02:44:43;;;;;;;22.48;15.95;;;20.00;99.90;;;;;;5001477;28;20040;-76
2021/09/10 02:47:47;;;;;;;19.23;15.60;;;20.00;99.90;;;;;;5008936;28;20364;-77
2021/09/10 02:50:39;;;;;;;21.20;17.45;;;20.00;99.90;;;;;;5000904;28;21341;-76
2021/09/10 02:53:35;;;;;;;21.73;16.58;;;20.00;99.90;;;;;;5012796;28;20052;-76
2021/09/10 02:56:20;;;;;;;14.80;12.80;;;20.00;99.90;;;;;;5006721;28;20056;-75
2021/09/10 02:59:21;;;;;;;18.65;16.65;;;20.00;99.90;;;;;;5015704;28;20339;-76
2021/09/10 03:02:12;;;;;;;20.80;15.40;;;20.00;99.90;;;;;;5004105;28;20465;-76
2021/09/10 03:05:14;;;;;;;19.73;16.33;;;19.90;99.90;;;;;;5011078;28;20556;-76
2021/09/10 03:07:59;;;;;;;21.02;16.75;;;19.80;99.90;;;;;;5010463;28;20493;-76
2021/09/10 03:10:44;;;;;;;25.42;19.15;;;19.80;99.90;;;;;;4996810;28;20076;-76
2021/09/10 03:13:29;;;;;;;21.75;18.00;;;19.80;99.90;;;;;;4994500;28;20052;-76
2021/09/10 03:16:24;;;;;;;23.30;18.15;;;19.90;99.90;;;;;;4993002;28;20048;-76
2021/09/10 03:19:09;;;;;;;22.48;17.67;;;19.80;99.90;;;;;;5008290;28;21516;-76
2021/09/10 03:21:57;;;;;;;22.23;16.67;;;19.80;99.90;;;;;;5000924;28;21313;-76
2021/09/10 03:24:42;;;;;;;19.48;14.68;;;19.80;99.90;;;;;;5003617;28;20752;-76
2021/09/10 03:27:28;;;;;;;22.00;17.17;;;19.80;99.90;;;;;;4999123;28;20055;-75
2021/09/10 03:30:21;;;;;;;25.27;17.23;;;19.80;99.90;;;;;;5004135;28;20077;-76
2021/09/10 03:33:24;;;;;;;20.65;16.73;;;19.80;99.90;;;;;;5000232;28;20592;-76
2021/09/10 03:36:12;;;;;;;18.65;16.42;;;19.80;99.90;;;;;;5002779;28;20048;-76
2021/09/10 03:38:58;;;;;;;29.15;19.67;;;19.80;99.90;;;;;;5010964;28;20052;-76
2021/09/10 03:41:42;;;;;;;27.50;21.83;;;19.80;99.90;;;;;;4999236;28;20059;-76
2021/09/10 03:44:43;;;;;;;22.58;18.00;;;19.80;99.90;;;;;;5006734;28;21493;-76
2021/09/10 03:47:46;;;;;;;24.95;18.20;;;19.80;99.90;;;;;;5009254;28;20655;-76
2021/09/10 03:50:31;;;;;;;20.58;17.25;;;19.80;99.90;;;;;;5005326;28;20409;-76
2021/09/10 03:53:16;;;;;;;18.98;15.25;;;19.80;99.90;;;;;;5001991;28;20044;-76
2021/09/10 03:56:02;;;;;;;23.38;17.42;;;19.80;99.90;;;;;;5001891;28;21862;-76
2021/09/10 03:58:47;;;;;;;21.67;16.52;;;19.90;99.90;;;;;;5017279;28;20048;-75
2021/09/10 04:01:32;;;;;;;19.42;15.98;;;19.80;99.90;;;;;;4999368;28;20048;-76
2021/09/10 04:04:20;;;;;;;16.42;12.98;;;19.80;99.90;;;;;;5015405;28;20028;-75
2021/09/10 04:07:09;;;;;;;21.95;15.05;;;19.80;99.90;;;;;;4984065;28;21398;-75
2021/09/10 04:10:10;;;;;;;16.25;12.55;;;19.80;99.90;;;;;;5008039;28;21530;-76
2021/09/10 04:13:11;;;;;;;22.88;17.88;;;19.70;99.90;;;;;;5008895;28;21465;-76
2021/09/10 04:16:05;;;;;;;20.88;18.00;;;19.70;99.90;;;;;;5005243;28;20045;-76
2021/09/10 04:18:53;;;;;;;;;;;19.80;99.90;;;;;;5007897;28;20056;-75
2021/09/10 04:21:38;;;;;;;22.83;19.98;;;19.60;99.90;;;;;;4997039;28;19913;-76
2021/09/10 04:24:24;;;;;;;19.63;16.67;;;19.60;99.90;;;;;;5013688;28;20063;-75
2021/09/10 04:27:10;;;;;;;24.52;17.80;;;19.60;99.90;;;;;;5002468;28;20048;-76
2021/09/10 04:29:57;;;;;;;23.55;18.08;;;19.50;99.90;;;;;;5012746;28;21440;-76
2021/09/10 04:32:45;;;;;;;17.30;13.52;;;19.50;99.90;;;;;;4995697;28;20080;-76
2021/09/10 04:35:30;;;;;;;19.92;16.20;;;19.50;99.90;;;;;;4994069;28;20048;-76
2021/09/10 04:38:18;;;;;;;22.88;16.80;;;19.50;99.90;;;;;;5006765;28;20052;-76
2021/09/10 04:41:08;;;;;;;14.07;10.20;;;19.50;99.90;;;;;;5011735;28;20318;-76
2021/09/10 04:43:53;;;;;;;20.35;16.10;;;19.50;99.90;;;;;;5007375;28;20056;-75
2021/09/10 04:46:38;;;;;;;26.58;18.40;;;19.50;99.90;;;;;;5017677;28;21210;-76
2021/09/10 04:49:51;;;;;;;17.65;14.20;;;19.50;99.90;;;;;;5016907;28;21847;-75
2021/09/10 04:55:40;;;;;;;15.02;12.32;;;19.50;99.90;;;;;;5011796;28;20446;-76
2021/09/10 04:58:25;;;;;;;21.52;17.42;;;19.50;99.90;;;;;;5005224;28;20063;-76
2021/09/10 05:01:11;;;;;;;18.25;14.63;;;19.50;99.90;;;;;;5002135;28;20052;-76
2021/09/10 05:04:15;;;;;;;23.77;16.50;;;19.50;99.90;;;;;;5003587;28;20044;-76
2021/09/10 05:07:00;;;;;;;19.55;16.42;;;19.50;99.90;;;;;;5005171;28;21846;-77
2021/09/10 05:09:45;;;;;;;20.58;16.73;;;19.50;99.90;;;;;;5012781;28;20060;-76
2021/09/10 05:12:33;;;;;;;25.33;20.20;;;19.50;99.90;;;;;;4999833;28;21389;-76
2021/09/10 05:15:37;;;;;;;13.98;12.27;;;19.50;99.90;;;;;;5016281;28;20044;-77
2021/09/10 05:18:37;;;;;;;20.60;17.80;;;19.50;99.90;;;;;;5003447;28;20036;-77
2021/09/10 05:21:22;;;;;;;20.38;16.90;;;19.50;99.90;;;;;;5013370;28;20048;-76
2021/09/10 05:24:07;;;;;;;23.30;15.18;;;19.60;99.90;;;;;;5004491;28;20056;-77
2021/09/10 05:27:07;;;;;;;22.98;18.38;;;19.60;99.90;;;;;;5011161;28;20727;-76
2021/09/10 05:30:08;;;;;;;25.98;20.40;;;19.70;99.90;;;;;;5012789;28;20052;-77
2021/09/10 05:32:53;;;;;;;22.65;17.83;;;19.70;99.90;;;;;;5004563;28;20056;-76
2021/09/10 05:35:38;;;;;;;30.27;20.98;;;19.70;99.90;;;;;;5003584;28;20088;-76
2021/09/10 05:38:26;;;;;;;23.40;18.60;;;19.70;99.90;;;;;;5005674;28;20048;-74
2021/09/10 05:41:12;;;;;;;27.23;19.92;;;19.80;99.90;;;;;;5012989;28;20052;-76
2021/09/10 05:44:19;;;;;;;23.88;18.38;;;19.70;99.90;;;;;;5007942;28;20044;-76
2021/09/10 05:47:05;;;;;;;24.13;18.17;;;19.60;99.90;;;;;;5007416;28;20052;-76
2021/09/10 05:49:54;;;;;;;21.92;17.23;;;19.50;99.90;;;;;;5007903;28;20310;-76
2021/09/10 05:52:43;;;;;;;20.60;17.50;;;19.50;99.90;;;;;;5010718;28;20036;-75
2021/09/10 05:55:29;;;;;;;24.40;17.63;;;19.50;99.90;;;;;;4991351;28;20048;-76
2021/09/10 05:58:15;;;;;;;22.38;19.73;;;19.50;99.90;;;;;;5004379;28;21818;-75
2021/09/10 06:01:03;;;;;;;20.77;13.93;;;19.50;99.90;;;;;;5007532;28;20048;-77
2021/09/10 06:03:51;;;;;;;31.73;22.40;;;19.40;99.90;;;;;;5002987;28;20048;-76
2021/09/10 06:06:55;;;;;;;24.00;17.88;;;19.40;99.90;;;;;;5016880;28;20040;-76
2021/09/10 06:09:43;;;;;;;27.00;20.15;;;19.40;99.90;;;;;;5010300;28;20059;-77
2021/09/10 06:12:40;;;;;;;27.20;20.02;;;19.40;99.90;;;;;;5004261;28;20044;-77
2021/09/10 06:15:33;;;;;;;38.53;25.60;;;19.40;99.90;;;;;;5005790;28;21931;-75
2021/09/10 06:18:19;;;;;;;34.80;25.10;;;19.40;99.90;;;;;;4987633;28;20060;-76
2021/09/10 06:21:04;;;;;;;31.75;18.60;;;19.40;99.90;;;;;;5016422;28;20040;-76
2021/09/10 06:23:51;;;;;;;37.40;27.98;;;19.40;99.90;;;;;;4983515;28;20036;-76
2021/09/10 06:26:45;;;;;;;44.90;26.35;;;19.40;99.90;;;;;;4996363;28;20044;-77
2021/09/10 06:29:31;;;;;;;30.73;21.83;;;19.50;99.90;;;;;;5001672;28;20068;-77
2021/09/10 06:32:16;;;;;;;31.10;23.52;;;19.50;99.90;;;;;;5015714;28;20044;-75
2021/09/10 06:35:05;;;;;;;28.60;20.55;;;19.50;99.90;;;;;;5009307;28;20342;-76
2021/09/10 06:37:53;;;;;;;42.88;25.33;;;19.50;99.90;;;;;;5015303;28;21701;-76
2021/09/10 06:40:48;;;;;;;37.22;29.17;;;19.60;99.90;;;;;;5006260;28;20048;-76
2021/09/10 06:43:36;;;;;;;28.98;22.17;;;19.70;99.90;;;;;;5006283;28;20044;-76
2021/09/10 06:46:21;;;;;;;36.28;26.52;;;19.60;99.90;;;;;;5014316;28;20044;-75
2021/09/10 06:49:25;;;;;;;36.15;25.92;;;19.70;99.90;;;;;;4997929;28;20135;-76
2021/09/10 06:52:29;;;;;;;;;;;19.70;99.90;;;;;;5014463;28;20643;-76
2021/09/10 06:55:26;;;;;;;27.10;20.90;;;19.80;99.90;;;;;;4999208;28;19905;-76
2021/09/10 06:58:14;;;;;;;24.15;19.77;;;19.90;99.90;;;;;;5010553;28;20088;-76
2021/09/10 07:01:00;;;;;;;32.95;24.33;;;20.00;99.90;;;;;;5004208;28;20037;-76
2021/09/10 07:03:51;;;;;;;34.95;27.77;;;20.10;99.90;;;;;;5006737;28;20052;-77
2021/09/10 07:06:39;;;;;;;31.77;24.73;;;20.20;99.90;;;;;;5008374;28;20482;-76
2021/09/10 07:09:24;;;;;;;34.72;28.10;;;20.20;99.90;;;;;;4995002;28;21413;-76
2021/09/10 07:12:10;;;;;;;39.70;28.55;;;20.30;99.90;;;;;;5009411;28;20446;-76
2021/09/10 07:15:01;;;;;;;35.22;28.35;;;20.40;99.90;;;;;;4996184;28;20063;-77
2021/09/10 07:18:02;;;;;;;30.30;26.67;;;20.40;99.90;;;;;;5010383;28;21911;-76
2021/09/10 07:21:02;;;;;;;36.97;24.90;;;20.50;99.90;;;;;;4997724;28;20055;-76
2021/09/10 07:23:55;;;;;;;35.35;27.05;;;20.60;99.90;;;;;;5006165;28;20060;-76
2021/09/10 07:26:52;;;;;;;27.27;23.52;;;20.70;99.90;;;;;;5008533;28;20060;-76
2021/09/10 07:29:42;;;;;;;32.25;26.10;;;20.90;99.90;;;;;;4996084;28;20064;-77
2021/09/10 07:32:27;;;;;;;34.08;27.13;;;20.90;99.90;;;;;;5010878;28;20441;-77
2021/09/10 07:35:12;;;;;;;33.88;26.88;;;21.00;99.90;;;;;;5004385;28;20051;-77
2021/09/10 07:37:57;;;;;;;23.27;19.98;;;21.10;99.90;;;;;;5007984;28;20072;-77
2021/09/10 07:40:51;;;;;;;33.60;26.27;;;21.20;99.90;;;;;;4996605;28;20052;-76
2021/09/10 07:43:39;;;;;;;29.30;26.10;;;21.30;99.90;;;;;;5012693;28;20103;-76
2021/09/10 07:46:28;;;;;;;31.45;27.13;;;21.30;99.90;;;;;;5012443;28;20044;-75
2021/09/10 07:49:25;;;;;;;33.40;27.85;;;21.30;99.90;;;;;;5006186;28;20473;-76
2021/09/10 07:52:10;;;;;;;33.97;27.23;;;21.40;99.90;;;;;;5016359;28;20048;-76
2021/09/10 07:54:58;;;;;;;37.03;29.60;;;21.50;99.90;;;;;;5001546;28;20072;-76
2021/09/10 07:57:44;;;;;;;34.92;25.90;;;21.60;99.90;;;;;;5014781;28;20992;-75
2021/09/10 08:00:32;;;;;;;38.03;30.70;;;21.70;99.90;;;;;;5000919;28;20067;-76
2021/09/10 08:03:38;;;;;;;39.92;29.25;;;21.80;99.90;;;;;;4993380;28;20326;-76
2021/09/10 08:06:23;;;;;;;35.22;29.70;;;21.90;99.90;;;;;;5002649;28;20070;-77
2021/09/10 08:09:14;;;;;;;34.67;30.98;;;22.10;99.90;;;;;;5010171;28;20458;-77
2021/09/10 08:11:59;;;;;;;32.13;28.15;;;22.40;99.90;;;;;;5000102;28;20060;-77
2021/09/10 08:14:44;;;;;;;37.13;29.80;;;22.40;99.90;;;;;;5007381;28;21867;-78
2021/09/10 08:17:29;;;;;;;38.25;29.88;;;22.50;99.90;;;;;;5005227;28;20052;-77
2021/09/10 08:20:36;;;;;;;33.08;27.42;;;22.60;99.90;;;;;;5004032;28;20107;-76
2021/09/10 08:23:21;;;;;;;31.73;27.07;;;22.70;99.90;;;;;;5007433;28;20804;-76
2021/09/10 08:26:06;;;;;;;32.60;27.77;;;22.80;99.90;;;;;;5008617;28;20666;-77
2021/09/10 08:28:51;;;;;;;34.95;29.80;;;22.90;99.90;;;;;;5008109;28;20044;-77
2021/09/10 08:31:46;;;;;;;34.75;29.42;;;22.70;99.90;;;;;;5004661;28;20116;-77
2021/09/10 08:34:34;;;;;;;32.03;25.27;;;22.80;99.90;;;;;;5004546;28;20048;-76
2021/09/10 08:37:26;;;;;;;35.15;29.85;;;22.90;99.90;;;;;;5005482;28;20056;-78
2021/09/10 08:40:11;;;;;;;32.45;27.23;;;22.90;99.90;;;;;;5005719;28;20048;-77
2021/09/10 08:43:06;;;;;;;29.17;25.90;;;23.10;99.90;;;;;;5008427;28;20332;-76
2021/09/10 08:45:58;;;;;;;37.45;28.60;;;23.20;99.90;;;;;;4998763;28;20060;-77
2021/09/10 08:48:47;;;;;;;36.50;31.47;;;23.20;99.90;;;;;;5008469;28;20409;-77
2021/09/10 08:51:31;;;;;;;40.47;30.42;;;23.10;99.90;;;;;;4997445;28;20298;-77
2021/09/10 08:54:27;;;;;;;39.13;34.10;;;23.10;99.90;;;;;;5009297;28;20040;-76
2021/09/10 08:57:33;;;;;;;38.28;33.25;;;22.90;99.90;;;;;;5005073;28;20076;-76
2021/09/10 09:00:41;;;;;;;41.00;32.90;;;22.60;99.90;;;;;;5001183;28;20048;-77
2021/09/10 09:03:28;;;;;;;33.35;29.10;;;22.50;99.90;;;;;;5007808;28;20529;-77
2021/09/10 09:06:36;;;;;;;42.90;35.05;;;22.70;99.90;;;;;;4985702;28;20044;-77
2021/09/10 09:10:03;;;;;;;38.90;31.20;;;22.80;99.90;;;;;;5010472;28;20683;-76
2021/09/10 09:12:48;;;;;;;41.20;31.50;;;22.70;99.90;;;;;;5011614;28;20048;-76
2021/09/10 09:15:34;;;;;;;35.92;31.52;;;22.80;99.90;;;;;;5008243;28;20048;-76
2021/09/10 09:18:44;;;;;;;38.20;31.00;;;22.80;99.90;;;;;;5012646;28;20040;-76
2021/09/10 09:22:06;;;;;;;39.72;33.15;;;23.00;99.90;;;;;;5006452;28;20067;-76
2021/09/10 09:25:07;;;;;;;35.33;28.83;;;23.10;99.90;;;;;;5010020;28;20048;-76
2021/09/10 09:28:12;;;;;;;38.15;33.95;;;;;;;;;;5001018;28;20048;-76
2021/09/10 09:31:11;;;;;;;39.70;33.05;;;23.20;99.90;;;;;;5004198;28;20072;-77
2021/09/10 09:34:07;;;;;;;38.53;32.17;;;23.10;99.90;;;;;;5010822;28;20064;-77
2021/09/10 09:37:08;;;;;;;37.90;33.10;;;23.00;99.90;;;;;;4998296;28;20622;-76
2021/09/10 09:40:03;;;;;;;35.38;31.10;;;23.10;99.90;;;;;;5008505;28;20048;-77
2021/09/10 09:43:21;;;;;;;37.55;33.30;;;23.20;99.90;;;;;;5004839;28;20654;-77
2021/09/10 09:46:27;;;;;;;35.13;31.20;;;23.20;99.90;;;;;;5003247;28;20055;-77
2021/09/10 09:49:24;;;;;;;45.38;35.30;;;23.20;99.90;;;;;;5011058;28;20064;-76
2021/09/10 09:52:15;;;;;;;38.75;32.58;;;23.30;99.90;;;;;;5010661;28;20667;-77
2021/09/10 09:55:06;;;;;;;31.30;26.88;;;23.00;99.90;;;;;;4990025;28;20056;-77
2021/09/10 09:57:51;;;;;;;35.88;30.55;;;23.20;99.90;;;;;;5004751;28;20099;-77
2021/09/10 10:03:51;;;;;;;40.38;33.38;;;23.20;99.90;;;;;;5012745;28;20080;-76
2021/09/10 10:06:47;;;;;;;37.47;31.27;;;23.20;99.90;;;;;;5016452;28;20048;-75
2021/09/10 10:09:36;;;;;;;36.08;31.38;;;23.30;99.90;;;;;;5025697;28;20084;-76
2021/09/10 10:12:48;;;;;;;33.05;27.55;;;23.30;99.90;;;;;;5011964;28;20040;-77
2021/09/10 10:15:53;;;;;;;36.75;30.52;;;23.30;99.90;;;;;;5018048;28;20048;-78
2021/09/10 10:18:46;;;;;;;38.08;30.35;;;23.50;99.90;;;;;;5022690;28;21600;-77
2021/09/10 10:22:04;;;;;;;32.88;27.48;;;23.50;99.90;;;;;;5017698;28;20044;-77
2021/09/10 10:24:57;;;;;;;34.30;29.75;;;23.50;99.90;;;;;;5018368;28;20410;-76
2021/09/10 10:27:54;;;;;;;37.70;31.63;;;23.70;99.90;;;;;;5003970;28;20052;-76
2021/09/10 10:30:39;;;;;;;38.65;33.17;;;23.60;99.90;;;;;;5016099;28;20091;-76
2021/09/10 10:33:33;;;;;;;35.80;30.45;;;23.50;99.90;;;;;;5013646;28;20044;-76
2021/09/10 10:36:42;;;;;;;38.03;31.30;;;23.70;99.90;;;;;;5011428;28;20040;-77
2021/09/10 10:39:31;;;;;;;35.67;28.48;;;23.70;99.90;;;;;;5011900;28;20044;-77
2021/09/10 10:42:15;;;;;;;36.03;29.15;;;23.70;99.90;;;;;;5012223;28;20044;-77
2021/09/10 10:45:04;;;;;;;39.03;31.83;;;23.80;99.90;;;;;;5020398;28;20048;-77
2021/09/10 10:47:52;;;;;;;37.33;32.03;;;23.50;99.90;;;;;;5004829;28;21175;-77
2021/09/10 10:50:38;;;;;;;40.85;32.45;;;23.50;99.90;;;;;;5019275;28;20051;-77
2021/09/10 10:53:42;;;;;;;38.45;32.22;;;23.40;99.90;;;;;;4998626;28;20445;-76
2021/09/10 10:56:29;;;;;;;42.30;33.88;;;;;;;;;;5010811;28;20048;-77
2021/09/10 10:59:25;;;;;;;41.58;32.63;;;23.70;99.90;;;;;;5014631;28;20048;-77
2021/09/10 11:02:22;;;;;;;38.28;31.25;;;23.60;99.90;;;;;;5019636;28;20044;-76
2021/09/10 11:05:24;;;;;;;40.08;32.58;;;23.70;99.90;;;;;;5014015;28;20456;-76
2021/09/10 11:08:10;;;;;;;36.38;30.00;;;23.70;99.90;;;;;;5008590;28;20072;-77
2021/09/10 11:11:00;;;;;;;38.35;31.02;;;23.70;99.90;;;;;;5014589;28;20052;-77
2021/09/10 11:13:48;;;;;;;45.92;35.60;;;23.70;99.90;;;;;;5006377;28;20048;-76
2021/09/10 11:16:40;;;;;;;37.83;31.58;;;23.70;99.90;;;;;;5015760;28;20095;-76
2021/09/10 11:19:31;;;;;;;34.75;30.50;;;23.50;99.90;;;;;;5006615;28;20055;-76
2021/09/10 11:22:45;;;;;;;37.75;31.45;;;23.40;99.90;;;;;;5013515;28;20198;-76
2021/09/10 11:25:51;;;;;;;43.25;33.17;;;23.20;99.90;;;;;;5007313;28;20075;-77
2021/09/10 11:28:38;;;;;;;40.33;32.08;;;23.30;99.90;;;;;;5005015;28;20051;-77
2021/09/10 11:31:27;;;;;;;38.85;33.72;;;23.30;99.90;;;;;;5011371;28;20382;-77
2021/09/10 11:34:34;;;;;;;32.28;28.48;;;23.50;99.90;;;;;;4997281;28;20056;-78
2021/09/10 11:37:57;;;;;;;42.40;36.22;;;23.80;99.90;;;;;;5011029;28;20048;-76
2021/09/10 11:40:58;;;;;;;35.35;31.50;;;24.00;99.90;;;;;;5007893;28;20099;-76
2021/09/10 11:43:46;;;;;;;40.30;33.20;;;24.30;99.40;;;;;;5006454;28;20072;-76
2021/09/10 11:46:35;;;;;;;36.55;31.50;;;24.40;99.10;;;;;;4996374;28;20057;-76
2021/09/10 11:49:30;;;;;;;38.13;30.95;;;24.60;99.00;;;;;;5014314;28;21351;-75
2021/09/10 11:52:38;;;;;;;32.22;27.50;;;24.90;98.50;;;;;;5008203;28;20044;-77
2021/09/10 11:56:01;;;;;;;29.33;26.17;;;25.20;98.20;;;;;;5009013;28;20048;-76
2021/09/10 11:58:55;;;;;;;30.55;26.92;;;25.60;98.20;;;;;;5019146;28;21861;-77
2021/09/10 12:01:42;;;;;;;33.92;30.35;;;25.30;97.80;;;;;;5020177;28;20044;-77
2021/09/10 12:04:37;;;;;;;31.48;28.10;;;25.20;97.40;;;;;;5013338;28;20655;-75
2021/09/10 12:07:26;;;;;;;30.02;26.92;;;25.00;97.90;;;;;;5012017;28;20040;-77
2021/09/10 12:10:35;;;;;;;31.95;28.60;;;25.10;97.90;;;;;;5006175;28;21187;-76
2021/09/10 12:13:33;;;;;;;34.13;29.13;;;25.00;97.30;;;;;;5006705;28;20044;-77
2021/09/10 12:16:19;;;;;;;27.67;24.65;;;25.00;97.80;;;;;;4990268;28;20068;-77
2021/09/10 12:19:29;;;;;;;26.17;22.02;;;25.40;97.90;;;;;;4998493;28;20044;-76
2021/09/10 12:22:33;;;;;;;29.33;25.75;;;25.70;97.40;;;;;;5015036;28;20056;-77
2021/09/10 12:25:52;;;;;;;33.13;27.30;;;25.70;96.30;;;;;;5010416;28;20056;-77
2021/09/10 12:28:47;;;;;;;30.15;27.05;;;25.50;96.70;;;;;;4995303;28;20040;-78
2021/09/10 12:31:41;;;;;;;28.92;25.70;;;25.20;97.20;;;;;;5006968;28;20073;-77
2021/09/10 12:34:27;;;;;;;33.92;25.95;;;25.40;96.50;;;;;;4997738;28;20056;-77
2021/09/10 12:37:25;;;;;;;29.15;26.05;;;25.50;97.40;;;;;;5011691;28;20040;-76
2021/09/10 12:40:13;;;;;;;23.70;19.80;;;26.00;95.80;;;;;;5000311;28;20040;-77
2021/09/10 12:43:02;;;;;;;30.48;26.05;;;26.50;96.10;;;;;;5008256;28;20052;-77
2021/09/10 12:45:49;;;;;;;26.55;23.60;;;27.00;94.00;;;;;;4999520;28;20048;-77
2021/09/10 12:48:59;;;;;;;28.67;25.73;;;27.60;94.10;;;;;;5012339;28;20052;-77
2021/09/10 12:51:47;;;;;;;25.60;23.08;;;28.20;93.50;;;;;;4998324;28;20068;-77
2021/09/10 12:54:33;;;;;;;29.00;25.73;;;27.90;92.40;;;;;;5000119;28;20084;-77
2021/09/10 12:57:20;;;;;;;26.55;23.15;;;27.40;92.20;;;;;;4993406;28;20056;-76
2021/09/10 13:00:11;;;;;;;25.70;20.20;;;27.00;92.90;;;;;;4990202;28;20445;-77
2021/09/10 13:02:56;;;;;;;27.08;20.05;;;26.60;92.90;;;;;;5006405;28;20433;-77
2021/09/10 13:05:52;;;;;;;32.13;20.88;;;26.50;93.60;;;;;;4997756;28;20326;-77
2021/09/10 13:08:38;;;;;;;30.13;23.02;;;26.20;94.30;;;;;;5009330;28;20068;-77
2021/09/10 13:11:42;;;;;;;27.70;22.95;;;26.20;95.20;;;;;;5004642;28;20060;-78
2021/09/10 13:14:27;;;;;;;25.60;21.65;;;27.80;97.90;;;;;;5005475;28;20087;-78
2021/09/10 13:17:24;;;;;;;26.48;23.73;;;28.90;94.80;;;;;;5010933;28;20036;-77
2021/09/10 13:20:16;;;;;;;26.40;23.38;;;29.20;92.60;;;;;;5000424;28;20040;-76
2021/09/10 13:23:01;;;;;;;29.02;23.90;;;30.60;90.40;;;;;;5009401;28;20119;-78
2021/09/10 13:25:59;;;;;;;27.80;23.35;;;30.80;91.10;;;;;;5003693;28;20367;-78
2021/09/10 13:28:49;;;;;;;25.98;21.85;;;32.00;86.50;;;;;;5007495;28;21378;-77
2021/09/10 13:31:34;;;;;;;23.88;21.40;;;32.10;80.60;;;;;;5009758;28;20060;-77
2021/09/10 13:34:29;;;;;;;20.40;18.30;;;32.10;79.10;;;;;;5009172;28;20040;-77
2021/09/10 13:37:14;;;;;;;20.67;15.98;;;32.60;76.20;;;;;;5012748;28;20052;-78
2021/09/10 13:40:00;;;;;;;16.58;14.90;;;33.40;74.40;;;;;;5005511;28;20048;-77
2021/09/10 13:42:49;;;;;;;16.05;14.35;;;34.00;73.30;;;;;;5010824;28;20064;-77
2021/09/10 13:45:44;;;;;;;14.68;13.10;;;34.50;68.40;;;;;;5000471;28;20059;-78
2021/09/10 13:48:31;;;;;;;18.35;14.63;;;34.20;64.30;;;;;;5012049;28;20036;-77
2021/09/10 13:51:41;;;;;;;15.45;13.85;;;33.80;63.00;;;;;;5003735;28;20068;-77
2021/09/10 13:54:29;;;;;;;17.30;13.68;;;33.50;63.00;;;;;;5002726;28;20421;-78
2021/09/10 13:57:15;;;;;;;14.68;12.50;;;33.60;62.10;;;;;;5008506;28;20048;-77
2021/09/10 14:00:00;;;;;;;14.95;13.43;;;33.00;64.50;;;;;;5001426;28;20040;-77
2021/09/10 14:02:46;;;;;;;14.50;12.27;;;33.40;62.60;;;;;;5012886;28;20409;-77
2021/09/10 14:05:33;;;;;;;16.77;12.70;;;;;;;;;;5005263;28;20052;-77
2021/09/10 14:08:21;;;;;;;13.57;12.07;;;33.10;60.10;;;;;;5018417;28;20048;-77
2021/09/10 14:11:12;;;;;;;14.30;12.63;;;33.00;61.20;;;;;;5003387;28;20056;-77
2021/09/10 14:14:03;;;;;;;12.32;10.90;;;33.40;61.00;;;;;;5016415;28;20318;-77
2021/09/10 14:16:48;;;;;;;14.27;10.20;;;32.90;60.80;;;;;;5001037;28;21148;-77
2021/09/10 14:19:40;;;;;;;11.32;8.77;;;32.60;61.70;;;;;;5011324;28;20044;-77
2021/09/10 14:22:28;;;;;;;11.95;8.68;;;32.80;61.60;;;;;;5010178;28;20064;-77
2021/09/10 14:25:38;;;;;;;12.82;9.18;;;32.20;61.20;;;;;;5007266;28;20561;-77
2021/09/10 14:28:33;;;;;;;11.52;9.73;;;32.40;60.20;;;;;;5014678;28;20072;-77
2021/09/10 14:31:24;;;;;;;11.90;8.88;;;32.40;60.00;;;;;;4999989;28;20064;-77
2021/09/10 14:34:11;;;;;;;14.65;9.27;;;32.50;60.70;;;;;;5007851;28;20110;-78
2021/09/10 14:37:03;;;;;;;10.13;7.97;;;33.30;57.90;;;;;;5000237;28;20587;-77
2021/09/10 14:39:48;;;;;;;10.02;7.40;;;33.60;58.20;;;;;;5007860;28;20044;-76
2021/09/10 14:42:33;;;;;;;11.13;7.63;;;33.90;57.30;;;;;;5008798;28;20529;-77